createdAt,value
2022-12-18T00:01:07.222Z,77.06
2022-12-18T00:03:37.453Z,76.47
2022-12-18T00:06:04.612Z,76.28
2022-12-18T00:08:31.255Z,76.66
2022-12-18T00:11:06.943Z,76.99
2022-12-18T00:13:34.348Z,76.39
2022-12-18T00:16:06.405Z,76.52
2022-12-18T00:18:33.703Z,76.55
2022-12-18T00:21:02.105Z,76.59
2022-12-18T00:23:29.417Z,76.69
2022-12-18T00:25:59.658Z,76.11
2022-12-18T00:28:26.238Z,76.15
2022-12-18T00:31:10.133Z,76.60
2022-12-18T00:33:37.844Z,76.35
2022-12-18T00:36:13.772Z,76.49
2022-12-18T00:38:41.280Z,76.22
2022-12-18T00:41:10.164Z,76.17
2022-12-18T00:43:38.546Z,76.59
2022-12-18T00:46:05.831Z,76.14
2022-12-18T00:48:33.338Z,76.73
2022-12-18T00:50:59.888Z,76.16
2022-12-18T00:53:26.468Z,76.39
2022-12-18T00:55:53.004Z,76.51
2022-12-18T00:58:19.897Z,75.78
2022-12-18T01:00:46.508Z,75.85
2022-12-18T01:03:16.191Z,75.81
2022-12-18T01:05:43.226Z,76.14
2022-12-18T01:08:09.971Z,76.37
2022-12-18T01:10:36.691Z,75.86
2022-12-18T01:13:03.308Z,76.19
2022-12-18T01:15:29.882Z,75.81
2022-12-18T01:17:56.408Z,76.47
2022-12-18T01:20:23.225Z,76.08
2022-12-18T01:22:49.786Z,75.71
2022-12-18T01:25:16.419Z,76.11
2022-12-18T01:27:43.155Z,76.20
2022-12-18T01:30:10.184Z,76.26
2022-12-18T01:32:36.733Z,76.11
2022-12-18T01:35:03.453Z,76.35
2022-12-18T01:37:30.082Z,75.67
2022-12-18T01:39:56.644Z,76.08
2022-12-18T01:42:23.641Z,76.23
2022-12-18T01:45:02.281Z,75.92
2022-12-18T01:47:34.733Z,76.41
2022-12-18T01:50:07.200Z,76.37
2022-12-18T01:52:35.483Z,76.35
2022-12-18T01:55:04.060Z,76.02
2022-12-18T01:57:30.885Z,75.89
2022-12-18T02:00:02.598Z,76.18
2022-12-18T02:02:31.374Z,76.65
2022-12-18T02:05:00.193Z,76.20
2022-12-18T02:07:32.869Z,76.13
2022-12-18T02:10:28.365Z,76.70
2022-12-18T02:13:14.771Z,76.30
2022-12-18T02:16:12.004Z,76.56
2022-12-18T02:18:44.233Z,76.97
2022-12-18T02:21:47.117Z,76.63
2022-12-18T02:24:36.156Z,76.69
2022-12-18T02:27:07.613Z,76.08
2022-12-18T02:29:41.462Z,76.85
2022-12-18T02:32:14.983Z,76.19
2022-12-18T02:34:43.601Z,76.49
2022-12-18T02:37:14.964Z,76.40
2022-12-18T02:39:44.434Z,76.82
2022-12-18T02:42:12.313Z,76.24
2022-12-18T02:44:46.767Z,76.32
2022-12-18T02:47:14.859Z,76.28
2022-12-18T02:49:49.890Z,76.71
2022-12-18T02:52:38.280Z,76.32
2022-12-18T02:55:27.604Z,75.91
2022-12-18T02:58:05.600Z,76.61
2022-12-18T03:00:36.653Z,76.20
2022-12-18T03:03:12.452Z,76.67
2022-12-18T03:05:44.336Z,76.16
2022-12-18T03:08:20.171Z,76.39
2022-12-18T03:10:54.549Z,76.31
2022-12-18T03:13:44.193Z,76.83
2022-12-18T03:16:16.228Z,76.38
2022-12-18T03:18:51.236Z,75.82
2022-12-18T03:21:23.279Z,76.35
2022-12-18T03:23:52.650Z,76.03
2022-12-18T03:26:23.332Z,75.98
2022-12-18T03:28:58.589Z,75.97
2022-12-18T03:31:28.782Z,76.39
2022-12-18T03:33:59.940Z,75.50
2022-12-18T03:36:27.417Z,76.40
2022-12-18T03:38:54.073Z,75.85
2022-12-18T03:41:39.014Z,75.68
2022-12-18T03:44:11.576Z,75.95
2022-12-18T03:46:56.199Z,75.99
2022-12-18T03:49:35.651Z,75.82
2022-12-18T03:52:10.777Z,76.41
2022-12-18T03:54:38.379Z,75.85
2022-12-18T03:57:12.682Z,75.82
2022-12-18T03:59:41.039Z,76.18
2022-12-18T04:02:09.215Z,75.68
2022-12-18T04:04:38.398Z,75.89
2022-12-18T04:07:06.369Z,76.04
2022-12-18T04:09:35.246Z,75.78
2022-12-18T04:12:01.993Z,75.95
2022-12-18T04:14:28.565Z,75.83
2022-12-18T04:16:55.096Z,75.86
2022-12-18T04:19:21.754Z,75.71
2022-12-18T04:21:48.273Z,75.73
2022-12-18T04:24:14.786Z,76.01
2022-12-18T04:26:41.328Z,75.64
2022-12-18T04:29:07.886Z,76.15
2022-12-18T04:31:34.540Z,76.13
2022-12-18T04:34:01.412Z,75.78
2022-12-18T04:36:28.433Z,76.05
2022-12-18T04:38:54.944Z,75.52
2022-12-18T04:41:21.883Z,75.91
2022-12-18T04:43:48.411Z,76.13
2022-12-18T04:46:15.269Z,76.15
2022-12-18T04:48:41.944Z,75.64
2022-12-18T04:51:08.665Z,75.90
2022-12-18T04:53:35.286Z,75.77
2022-12-18T04:56:10.885Z,75.59
2022-12-18T04:58:38.473Z,76.08
2022-12-18T05:01:05.572Z,75.68
2022-12-18T05:03:32.569Z,75.65
2022-12-18T05:05:59.120Z,75.77
2022-12-18T05:08:25.712Z,75.95
2022-12-18T05:11:10.019Z,75.67
2022-12-18T05:13:37.716Z,75.61
2022-12-18T05:16:05.778Z,75.60
2022-12-18T05:18:32.754Z,75.69
2022-12-18T05:20:59.434Z,75.58
2022-12-18T05:23:27.091Z,75.37
2022-12-18T05:26:01.193Z,75.77
2022-12-18T05:28:30.665Z,75.40
2022-12-18T05:30:59.812Z,75.54
2022-12-18T05:33:28.479Z,75.43
2022-12-18T05:35:56.835Z,75.31
2022-12-18T05:38:25.458Z,74.94
2022-12-18T05:40:53.384Z,75.24
2022-12-18T05:43:22.717Z,74.85
2022-12-18T05:45:50.309Z,74.97
2022-12-18T05:48:17.900Z,75.07
2022-12-18T05:50:48.975Z,74.78
2022-12-18T05:53:20.307Z,75.19
2022-12-18T05:55:47.554Z,75.00
2022-12-18T05:58:15.388Z,75.13
2022-12-18T06:00:44.201Z,77.73
2022-12-18T06:03:12.189Z,80.43
2022-12-18T06:05:41.551Z,81.25
2022-12-18T06:08:08.826Z,77.51
2022-12-18T06:10:36.121Z,71.18
2022-12-18T06:13:02.740Z,70.08
2022-12-18T06:15:29.293Z,69.19
2022-12-18T06:17:56.010Z,70.01
2022-12-18T06:20:22.662Z,70.26
2022-12-18T06:22:49.273Z,70.76
2022-12-18T06:25:16.546Z,70.73
2022-12-18T06:27:43.169Z,70.94
2022-12-18T06:30:11.458Z,71.41
2022-12-18T06:32:38.140Z,71.57
2022-12-18T06:35:05.091Z,71.72
2022-12-18T06:37:32.792Z,71.72
2022-12-18T06:39:59.449Z,71.73
2022-12-18T06:42:26.245Z,72.05
2022-12-18T06:44:52.941Z,72.36
2022-12-18T06:47:19.804Z,72.41
2022-12-18T06:49:46.341Z,72.04
2022-12-18T06:52:13.042Z,72.46
2022-12-18T06:54:39.567Z,72.57
2022-12-18T06:57:06.167Z,72.49
2022-12-18T06:59:32.724Z,73.35
2022-12-18T07:01:59.406Z,72.86
2022-12-18T07:04:31.338Z,73.03
2022-12-18T07:06:58.560Z,73.71
2022-12-18T07:09:25.634Z,73.76
2022-12-18T07:11:53.069Z,73.74
2022-12-18T07:14:19.693Z,73.43
2022-12-18T07:16:46.266Z,73.17
2022-12-18T07:19:12.897Z,73.47
2022-12-18T07:21:39.629Z,73.81
2022-12-18T07:24:06.941Z,73.77
2022-12-18T07:26:33.514Z,74.08
2022-12-18T07:29:00.214Z,73.86
2022-12-18T07:31:27.190Z,74.58
2022-12-18T07:33:54.590Z,73.75
2022-12-18T07:36:24.215Z,74.31
2022-12-18T07:38:52.698Z,74.71
2022-12-18T07:41:19.966Z,74.34
2022-12-18T07:43:47.164Z,74.65
2022-12-18T07:46:15.128Z,74.15
2022-12-18T07:48:43.413Z,74.61
2022-12-18T07:51:13.492Z,74.74
2022-12-18T07:53:41.309Z,74.69
2022-12-18T07:56:28.302Z,74.54
2022-12-18T07:58:56.113Z,74.60
2022-12-18T08:01:22.828Z,75.27
2022-12-18T08:03:50.144Z,74.47
2022-12-18T08:06:18.992Z,74.83
2022-12-18T08:08:45.576Z,74.51
2022-12-18T08:11:12.147Z,74.70
2022-12-18T08:13:39.041Z,75.00
2022-12-18T08:16:08.347Z,74.58
2022-12-18T08:18:36.820Z,74.82
2022-12-18T08:21:24.035Z,74.69
2022-12-18T08:23:52.825Z,74.86
2022-12-18T08:26:21.070Z,74.72
2022-12-18T08:28:48.710Z,75.00
2022-12-18T08:31:16.295Z,74.76
2022-12-18T08:33:43.697Z,74.94
2022-12-18T08:36:11.153Z,75.30
2022-12-18T08:38:38.312Z,75.40
2022-12-18T08:41:07.218Z,74.86
2022-12-18T08:43:52.794Z,75.42
2022-12-18T08:46:21.237Z,75.17
2022-12-18T08:48:48.567Z,75.41
2022-12-18T08:51:18.156Z,76.01
2022-12-18T08:53:48.230Z,75.36
2022-12-18T08:56:15.550Z,75.73
2022-12-18T08:58:42.667Z,75.86
2022-12-18T09:01:11.714Z,75.89
2022-12-18T09:03:39.288Z,75.98
2022-12-18T09:06:06.990Z,75.70
2022-12-18T09:08:37.613Z,75.86
2022-12-18T09:11:04.458Z,75.50
2022-12-18T09:13:31.013Z,75.47
2022-12-18T09:15:57.539Z,75.75
2022-12-18T09:18:25.375Z,75.48
2022-12-18T09:20:53.773Z,75.47
2022-12-18T09:23:21.338Z,75.38
2022-12-18T09:25:48.261Z,74.98
2022-12-18T09:28:19.213Z,75.44
2022-12-18T09:30:50.360Z,74.75
2022-12-18T09:33:18.166Z,74.73
2022-12-18T09:35:46.229Z,74.89
2022-12-18T09:38:16.838Z,74.57
2022-12-18T09:40:50.428Z,74.89
2022-12-18T09:43:38.483Z,74.43
2022-12-18T09:46:08.870Z,74.53
2022-12-18T09:48:45.800Z,74.38
2022-12-18T09:51:30.300Z,74.24
2022-12-18T09:54:04.030Z,74.68
2022-12-18T09:56:36.092Z,74.33
2022-12-18T09:59:04.499Z,74.62
2022-12-18T10:01:41.475Z,74.59
2022-12-18T10:04:11.014Z,74.25
2022-12-18T10:06:37.731Z,74.74
2022-12-18T10:09:19.466Z,74.29
2022-12-18T10:11:55.170Z,74.18
2022-12-18T10:14:28.541Z,74.92
2022-12-18T10:17:25.216Z,74.56
2022-12-18T10:19:57.354Z,74.36
2022-12-18T10:22:37.591Z,73.96
2022-12-18T10:25:16.693Z,74.35
2022-12-18T10:27:43.574Z,74.61
2022-12-18T10:30:18.570Z,74.63
2022-12-18T10:32:45.260Z,74.63
2022-12-18T10:35:29.064Z,74.54
2022-12-18T10:38:01.581Z,74.21
2022-12-18T10:40:28.475Z,74.62
2022-12-18T10:43:14.205Z,73.91
2022-12-18T10:45:41.199Z,74.61
2022-12-18T10:48:22.646Z,74.35
2022-12-18T10:53:42.614Z,74.80
2022-12-18T10:56:09.936Z,74.74
2022-12-18T10:58:39.833Z,74.09
2022-12-18T11:01:11.713Z,73.79
2022-12-18T11:03:44.524Z,74.24
2022-12-18T11:06:16.788Z,74.48
2022-12-18T11:08:57.896Z,74.40
2022-12-18T11:11:25.844Z,74.30
2022-12-18T11:13:58.560Z,73.75
2022-12-18T11:16:25.383Z,74.08
2022-12-18T11:18:52.119Z,73.62
2022-12-18T11:21:18.683Z,74.42
2022-12-18T11:23:52.643Z,74.10
2022-12-18T11:26:19.992Z,74.09
2022-12-18T11:29:08.096Z,74.25
2022-12-18T11:31:34.817Z,74.51
2022-12-18T11:34:29.108Z,74.02
2022-12-18T11:36:58.606Z,74.19
2022-12-18T11:39:46.638Z,74.00
2022-12-18T11:42:34.193Z,73.12
2022-12-18T11:45:16.132Z,73.76
2022-12-18T11:47:42.774Z,73.90
2022-12-18T11:50:17.094Z,74.05
2022-12-18T11:52:43.854Z,73.54
2022-12-18T11:55:32.317Z,74.08
2022-12-18T11:58:53.485Z,74.05
2022-12-18T12:01:47.392Z,74.14
2022-12-18T12:04:32.589Z,73.84
2022-12-18T12:07:10.976Z,73.35
2022-12-18T12:09:49.280Z,73.50
2022-12-18T12:12:23.123Z,74.04
2022-12-18T12:15:32.524Z,73.92
2022-12-18T12:18:26.705Z,73.57
2022-12-18T12:21:11.228Z,73.61
2022-12-18T12:23:53.042Z,73.42
2022-12-18T12:26:30.876Z,73.42
2022-12-18T12:29:43.849Z,73.12
2022-12-18T12:32:52.163Z,73.10
2022-12-18T12:35:45.319Z,73.19
2022-12-18T12:38:21.086Z,73.27
2022-12-18T12:41:03.349Z,73.35
2022-12-18T12:43:50.463Z,73.29
2022-12-18T12:46:22.375Z,73.23
2022-12-18T12:48:58.736Z,73.22
2022-12-18T12:51:33.102Z,72.57
2022-12-18T12:54:02.350Z,72.54
2022-12-18T12:56:43.380Z,72.65
2022-12-18T12:59:47.427Z,72.69
2022-12-18T13:02:51.561Z,72.54
2022-12-18T13:05:31.368Z,72.62
2022-12-18T13:08:07.176Z,72.47
2022-12-18T13:10:43.457Z,71.99
2022-12-18T13:13:17.344Z,72.50
2022-12-18T13:16:06.170Z,72.14
2022-12-18T13:18:34.997Z,72.34
2022-12-18T13:21:03.743Z,72.46
2022-12-18T13:23:40.316Z,72.76
2022-12-18T13:26:07.544Z,72.58
2022-12-18T13:28:34.832Z,72.55
2022-12-18T13:31:02.592Z,71.97
2022-12-18T13:33:29.745Z,72.16
2022-12-18T13:36:17.395Z,72.22
2022-12-18T13:38:45.715Z,72.21
2022-12-18T13:41:18.564Z,72.42
2022-12-18T13:44:11.362Z,72.50
2022-12-18T13:46:45.578Z,71.89
2022-12-18T13:49:15.269Z,72.00
2022-12-18T13:51:54.542Z,71.91
2022-12-18T13:54:40.087Z,71.70
2022-12-18T13:57:32.508Z,72.40
2022-12-18T14:00:13.150Z,71.95
2022-12-18T14:02:40.672Z,72.44
2022-12-18T14:05:25.083Z,71.87
2022-12-18T14:07:53.619Z,72.05
2022-12-18T14:10:42.605Z,72.16
2022-12-18T14:13:12.263Z,71.71
2022-12-18T14:15:48.568Z,72.49
2022-12-18T14:18:21.059Z,72.54
2022-12-18T14:20:52.569Z,72.51
2022-12-18T14:23:36.357Z,71.96
2022-12-18T14:26:20.897Z,72.28
2022-12-18T14:28:47.601Z,72.31
2022-12-18T14:31:27.503Z,72.32
2022-12-18T14:33:55.116Z,72.27
2022-12-18T14:36:24.885Z,72.88
2022-12-18T14:38:56.933Z,72.78
2022-12-18T14:41:24.977Z,72.63
2022-12-18T14:43:53.500Z,72.76
2022-12-18T14:46:44.003Z,73.02
2022-12-18T14:49:31.048Z,72.86
2022-12-18T14:52:07.304Z,72.76
2022-12-18T14:54:37.949Z,73.03
2022-12-18T14:57:24.388Z,73.05
2022-12-18T14:59:51.897Z,73.27
2022-12-18T15:02:27.896Z,72.89
2022-12-18T15:05:13.486Z,73.64
2022-12-18T15:07:51.440Z,73.14
2022-12-18T15:10:24.369Z,73.18
2022-12-18T15:13:09.400Z,73.68
2022-12-18T15:15:38.908Z,74.07
2022-12-18T15:18:18.759Z,73.46
2022-12-18T15:20:49.695Z,73.95
2022-12-18T15:23:24.704Z,73.65
2022-12-18T15:26:12.887Z,74.10
2022-12-18T15:28:56.505Z,74.35
2022-12-18T15:31:32.442Z,74.08
2022-12-18T15:34:00.272Z,74.52
2022-12-18T15:36:30.678Z,74.56
2022-12-18T15:39:04.786Z,74.55
2022-12-18T15:41:36.922Z,74.16
2022-12-18T15:44:21.920Z,74.31
2022-12-18T15:46:48.460Z,74.54
2022-12-18T15:49:15.036Z,74.54
2022-12-18T15:51:41.745Z,74.28
2022-12-18T15:54:14.097Z,74.44
2022-12-18T15:56:59.918Z,74.66
2022-12-18T15:59:27.562Z,74.63
2022-12-18T16:01:54.372Z,74.71
2022-12-18T16:04:23.354Z,74.61
2022-12-18T16:07:13.967Z,74.37
2022-12-18T16:09:37.901Z,74.46
2022-12-18T16:12:05.040Z,74.46
2022-12-18T16:14:32.815Z,74.16
2022-12-18T16:17:04.622Z,74.18
2022-12-18T16:19:31.136Z,74.14
2022-12-18T16:21:59.150Z,74.70
2022-12-18T16:24:31.332Z,74.29
2022-12-18T16:27:00.400Z,74.68
2022-12-18T16:29:28.784Z,74.76
2022-12-18T16:32:00.133Z,74.71
2022-12-18T16:34:29.321Z,75.07
2022-12-18T16:37:08.374Z,74.53
2022-12-18T16:39:36.297Z,74.73
2022-12-18T16:42:20.532Z,75.25
2022-12-18T16:44:49.167Z,74.71
2022-12-18T16:47:16.498Z,74.85
2022-12-18T16:49:45.795Z,74.92
2022-12-18T16:52:12.644Z,74.74
2022-12-18T16:54:39.294Z,75.05
2022-12-18T16:57:05.873Z,74.83
2022-12-18T16:59:35.809Z,74.89
2022-12-18T17:02:06.165Z,74.91
2022-12-18T17:04:33.722Z,75.23
2022-12-18T17:07:00.277Z,74.48
2022-12-18T17:09:26.860Z,75.01
2022-12-18T17:11:54.587Z,75.07
2022-12-18T17:14:24.537Z,74.90
2022-12-18T17:17:19.364Z,74.81
2022-12-18T17:19:38.843Z,75.48
2022-12-18T17:22:05.633Z,74.96
2022-12-18T17:24:35.033Z,75.41
2022-12-18T17:27:02.961Z,75.43
2022-12-18T17:29:29.554Z,74.91
2022-12-18T17:31:56.073Z,74.94
2022-12-18T17:34:24.356Z,74.99
2022-12-18T17:36:51.108Z,74.84
2022-12-18T17:39:19.761Z,75.10
2022-12-18T17:41:46.836Z,74.86
2022-12-18T17:44:13.813Z,74.42
2022-12-18T17:46:40.800Z,75.05
2022-12-18T17:49:07.525Z,75.14
2022-12-18T17:51:34.224Z,74.75
2022-12-18T17:54:01.160Z,74.95
2022-12-18T17:56:27.839Z,75.08
2022-12-18T17:58:54.520Z,74.78
2022-12-18T18:01:24.482Z,74.65
2022-12-18T18:03:52.884Z,75.01
2022-12-18T18:06:21.159Z,74.66
2022-12-18T18:08:48.413Z,75.18
2022-12-18T18:11:36.871Z,74.90
2022-12-18T18:14:07.886Z,74.93
2022-12-18T18:16:41.246Z,74.93
2022-12-18T18:19:16.820Z,74.88
2022-12-18T18:21:45.223Z,74.62
2022-12-18T18:24:13.526Z,74.96
2022-12-18T18:26:41.628Z,74.76
2022-12-18T18:29:09.752Z,75.06
2022-12-18T18:31:40.894Z,75.02
2022-12-18T18:34:10.257Z,74.66
2022-12-18T18:36:36.819Z,74.85
2022-12-18T18:39:03.420Z,75.09
2022-12-18T18:41:30.636Z,74.56
2022-12-18T18:43:58.468Z,75.04
2022-12-18T18:46:26.345Z,74.51
2022-12-18T18:48:53.255Z,74.75
2022-12-18T18:51:21.708Z,74.83
2022-12-18T18:53:52.193Z,74.71
2022-12-18T18:59:08.649Z,74.23
2022-12-18T19:01:35.384Z,74.83
2022-12-18T19:04:05.083Z,74.80
2022-12-18T19:06:31.718Z,74.63
2022-12-18T19:08:59.329Z,74.78
2022-12-18T19:11:45.678Z,74.59
2022-12-18T19:14:14.891Z,74.23
2022-12-18T19:16:43.501Z,74.47
2022-12-18T19:19:11.323Z,74.72
2022-12-18T19:21:38.360Z,74.25
2022-12-18T19:24:06.031Z,74.63
2022-12-18T19:26:32.650Z,74.42
2022-12-18T19:29:04.680Z,74.48
2022-12-18T19:31:35.526Z,73.98
2022-12-18T19:34:04.292Z,74.24
2022-12-18T19:36:32.384Z,74.58
2022-12-18T19:39:00.945Z,74.80
2022-12-18T19:41:30.631Z,74.54
2022-12-18T19:43:58.720Z,74.30
2022-12-18T19:46:25.489Z,74.66
2022-12-18T19:48:52.478Z,74.39
2022-12-18T19:51:26.027Z,74.38
2022-12-18T19:53:58.428Z,74.70
2022-12-18T19:56:28.481Z,73.99
2022-12-18T19:58:55.571Z,74.39
2022-12-18T20:01:24.202Z,74.02
2022-12-18T20:03:54.384Z,74.31
2022-12-18T20:06:51.582Z,74.63
2022-12-18T20:09:19.204Z,74.76
2022-12-18T20:11:46.024Z,74.86
2022-12-18T20:14:14.408Z,74.88
2022-12-18T20:16:43.590Z,75.15
2022-12-18T20:19:12.125Z,74.68
2022-12-18T20:21:38.813Z,74.98
2022-12-18T20:24:07.004Z,74.68
2022-12-18T20:26:33.849Z,75.04
2022-12-18T20:29:00.637Z,75.17
2022-12-18T20:31:27.275Z,74.99
2022-12-18T20:34:00.331Z,75.17
2022-12-18T20:36:28.384Z,74.84
2022-12-18T20:38:59.133Z,75.33
2022-12-18T20:41:35.040Z,75.03
2022-12-18T20:44:21.793Z,74.99
2022-12-18T20:46:55.520Z,75.23
2022-12-18T20:49:23.773Z,75.33
2022-12-18T20:51:52.410Z,75.21
2022-12-18T20:54:19.126Z,75.33
2022-12-18T20:56:45.678Z,75.32
2022-12-18T20:59:12.331Z,75.22
2022-12-18T21:01:45.202Z,75.31
2022-12-18T21:04:15.900Z,75.15
2022-12-18T21:06:49.428Z,75.53
2022-12-18T21:09:20.424Z,75.67
2022-12-18T21:12:05.640Z,75.32
2022-12-18T21:14:32.501Z,75.49
2022-12-18T21:17:02.055Z,75.21
2022-12-18T21:19:29.824Z,75.54
2022-12-18T21:21:57.387Z,75.42
2022-12-18T21:24:24.697Z,75.60
2022-12-18T21:26:54.127Z,75.84
2022-12-18T21:29:23.451Z,76.23
2022-12-18T21:31:52.078Z,76.02
2022-12-18T21:34:28.103Z,75.95
2022-12-18T21:36:56.494Z,75.70
2022-12-18T21:39:24.600Z,75.71
2022-12-18T21:42:10.234Z,76.10
2022-12-18T21:44:41.503Z,76.24
2022-12-18T21:47:22.070Z,75.92
2022-12-18T21:49:53.089Z,76.02
2022-12-18T21:52:22.155Z,75.99
2022-12-18T21:55:06.168Z,76.20
2022-12-18T21:57:35.739Z,76.16
2022-12-18T22:00:03.114Z,75.73
2022-12-18T22:02:29.962Z,75.82
2022-12-18T22:04:56.676Z,76.09
2022-12-18T22:07:23.592Z,75.52
2022-12-18T22:09:50.139Z,75.78
2022-12-18T22:12:35.678Z,75.53
2022-12-18T22:15:06.915Z,75.48
2022-12-18T22:17:33.483Z,75.45
2022-12-18T22:20:00.039Z,75.48
2022-12-18T22:22:26.894Z,75.19
2022-12-18T22:24:53.475Z,75.16
2022-12-18T22:27:20.040Z,74.71
2022-12-18T22:30:04.876Z,74.92
2022-12-18T22:32:35.888Z,75.12
2022-12-18T22:35:09.133Z,74.91
2022-12-18T22:37:39.431Z,75.03
2022-12-18T22:40:07.346Z,75.03
2022-12-18T22:42:34.231Z,75.11
2022-12-18T22:45:00.846Z,75.34
2022-12-18T22:47:30.119Z,75.11
2022-12-18T22:49:57.625Z,75.15
2022-12-18T22:52:24.321Z,75.07
2022-12-18T22:54:53.648Z,75.18
2022-12-18T22:57:22.025Z,75.25
2022-12-18T22:59:49.702Z,75.05
2022-12-18T23:02:17.886Z,74.77
2022-12-18T23:04:45.029Z,74.84
2022-12-18T23:07:11.707Z,74.80
2022-12-18T23:09:39.613Z,74.60
2022-12-18T23:12:06.620Z,74.97
2022-12-18T23:14:33.333Z,74.80
2022-12-18T23:17:00.012Z,74.59
2022-12-18T23:19:26.841Z,74.45
2022-12-18T23:21:54.874Z,74.59
2022-12-18T23:24:25.410Z,74.74
2022-12-18T23:26:52.147Z,74.67
2022-12-18T23:29:18.702Z,74.79
2022-12-18T23:31:45.381Z,74.54
2022-12-18T23:34:13.578Z,74.63
2022-12-18T23:36:46.462Z,74.44
2022-12-18T23:39:22.379Z,74.84
2022-12-18T23:41:56.452Z,75.12
2022-12-18T23:44:23.077Z,75.36
2022-12-18T23:46:49.730Z,75.19
2022-12-18T23:49:16.301Z,75.42
2022-12-18T23:51:42.916Z,74.86
2022-12-18T23:54:10.482Z,75.50
2022-12-18T23:56:37.066Z,75.06
2022-12-18T23:59:03.616Z,75.38
